New Norfolk, Australia
Current Conditions -  °F | °C
As of 11:00 AM on Friday 28 Nov 2014 (Local Time) from YMHB Reporting Station
Scattered Clouds Scattered Clouds  
Wind Chill: 57°   Ceiling: Unl
Heat Index: 57°   Visibility: 6mi
Dew Point: 36°   Wind: 8mph
Humidity: 44%   Direction: 140°SE
Pressure: 30.21"   Gusts: NA
Location:  42.78°S, 147.06°E
Report Text: YMHB 280000Z 14007KT 100V170 9999 FEW045 SCT260 14/02 Q1023
Loading
Personal Weather Stations






























Interactive Weather Map New forecast layout! Learn more

10-Day Weather Forecast

Advertisements
Track Severe Weather on mobile